Time;durP1;ratioP1;P1;durP2;ratioP2;P2;SDS_P1;SDS_P2;PMS_P1;PMS_P2;Temp;Humidity;BMP_temperature;BMP_pressure;BME280_temperature;BME280_humidity;BME280_pressure;Samples;Min_cycle;Max_cycle;Signal;HPM_P1;HPM_P2
2023/06/10 00:02:57;;;;;;;3.42;2.30;;;;;;;18.91;73.35;101443.16;6186689;28;20051;-73
2023/06/10 00:05:58;;;;;;;6.38;2.72;;;;;;;18.86;72.59;101448.00;6205227;28;20069;-73
2023/06/10 00:09:00;;;;;;;4.72;2.40;;;;;;;18.76;73.23;101455.84;6205124;28;20050;-73
2023/06/10 00:12:02;;;;;;;4.93;2.60;;;;;;;18.71;73.01;101455.31;6204666;28;20129;-73
2023/06/10 00:15:04;;;;;;;5.03;2.13;;;;;;;18.71;73.17;101450.00;6205312;28;20046;-73
2023/06/10 00:18:09;;;;;;;6.35;2.13;;;;;;;18.72;72.60;101457.88;6200892;28;20047;-73
2023/06/10 00:21:13;;;;;;;5.18;2.30;;;;;;;18.68;71.66;101455.53;6180073;28;20192;-73
2023/06/10 00:24:14;;;;;;;8.95;2.28;;;;;;;18.59;71.97;101456.22;6180886;28;20065;-73
2023/06/10 00:27:16;;;;;;;7.07;2.40;;;;;;;18.41;72.90;101461.97;6180479;28;20061;-73
2023/06/10 00:30:17;;;;;;;3.92;2.45;;;;;;;18.43;73.30;101460.03;6180169;28;20054;-73
2023/06/10 00:33:20;;;;;;;4.15;2.35;;;;;;;18.36;73.00;101468.63;6181656;28;20051;-73
2023/06/10 00:36:22;;;;;;;6.30;2.60;;;;;;;18.27;73.88;101456.00;6180631;28;20066;-73
2023/06/10 00:39:23;;;;;;;4.65;2.58;;;;;;;18.25;74.09;101453.41;6180417;28;20047;-73
2023/06/10 00:42:25;;;;;;;7.35;2.03;;;;;;;18.25;73.50;101458.75;6179626;28;20480;-74
2023/06/10 00:45:26;;;;;;;6.90;2.50;;;;;;;18.19;73.39;101456.56;6180215;28;20395;-73
2023/06/10 00:48:29;;;;;;;3.95;2.33;;;;;;;18.10;73.33;101455.41;6181200;28;20049;-73
2023/06/10 00:51:31;;;;;;;5.22;2.00;;;;;;;18.09;73.30;101463.53;6179619;28;20047;-73
2023/06/10 00:54:32;;;;;;;2.88;2.10;;;;;;;17.92;72.92;101468.25;6180048;28;20051;-73
2023/06/10 00:57:34;;;;;;;3.97;2.20;;;;;;;17.89;73.82;101465.81;6180077;28;20457;-73
2023/06/10 01:00:35;;;;;;;6.13;2.25;;;;;;;17.85;73.76;101468.78;6179145;28;20053;-73
2023/06/10 01:03:39;;;;;;;3.92;1.80;;;;;;;17.85;73.39;101466.13;6180057;28;20058;-73
2023/06/10 01:06:53;;;;;;;4.25;2.40;;;;;;;17.82;73.67;101466.38;6200250;28;20046;-73
2023/06/10 01:10:00;;;;;;;3.38;1.95;;;;;;;17.77;73.65;101465.88;6194580;28;20054;-73
2023/06/10 01:13:03;;;;;;;3.92;1.98;;;;;;;17.74;73.29;101467.75;6197121;28;20054;-73
2023/06/10 01:16:05;;;;;;;7.07;2.17;;;;;;;17.66;73.44;101470.09;6201881;28;20072;-73
2023/06/10 01:19:09;;;;;;;5.15;2.10;;;;;;;17.64;73.71;101468.50;6201849;28;20053;-74
2023/06/10 01:22:15;;;;;;;3.50;1.90;;;;;;;17.65;73.32;101468.41;6194946;28;20058;-73
2023/06/10 01:25:17;;;;;;;3.20;1.70;;;;;;;17.59;73.27;101463.53;6203347;28;20066;-73
2023/06/10 01:28:26;;;;;;;3.38;2.10;;;;;;;17.54;73.20;101457.69;6203576;28;20062;-73
2023/06/10 01:31:36;;;;;;;3.10;1.98;;;;;;;17.43;73.30;101466.41;6202854;28;20105;-74
2023/06/10 01:34:40;;;;;;;5.07;1.90;;;;;;;17.35;74.08;101470.56;6203515;28;20057;-74
2023/06/10 01:37:46;;;;;;;5.07;2.03;;;;;;;17.34;74.44;101474.19;6203037;28;20428;-74
2023/06/10 01:40:50;;;;;;;2.80;1.67;;;;;;;17.33;74.01;101473.34;6202372;28;20073;-73
2023/06/10 01:43:51;;;;;;;3.63;1.90;;;;;;;17.30;74.01;101476.19;6203123;28;20058;-74
2023/06/10 01:46:52;;;;;;;3.28;2.08;;;;;;;17.24;74.11;101476.63;6202783;28;20046;-74
2023/06/10 01:49:54;;;;;;;5.30;2.00;;;;;;;17.20;75.16;101485.78;6200912;28;20046;-74
2023/06/10 01:52:58;;;;;;;3.35;2.50;;;;;;;17.13;76.05;101476.53;6202335;28;20427;-74
2023/06/10 01:55:59;;;;;;;3.47;1.95;;;;;;;17.10;76.65;101480.25;6202734;28;20054;-74
2023/06/10 01:59:01;;;;;;;9.40;2.28;;;;;;;17.09;76.56;101472.41;6194598;28;20050;-74
2023/06/10 02:02:02;;;;;;;4.13;2.20;;;;;;;17.01;77.43;101478.22;6195918;28;20046;-74
2023/06/10 02:05:05;;;;;;;4.95;2.25;;;;;;;16.94;77.15;101471.63;6195210;28;20462;-74
2023/06/10 02:08:07;;;;;;;4.15;2.10;;;;;;;16.88;78.54;101478.22;6196009;28;20054;-74
2023/06/10 02:11:09;;;;;;;2.92;1.90;;;;;;;16.85;79.36;101480.22;6193359;28;20050;-74
2023/06/10 02:14:10;;;;;;;2.25;1.73;;;;;;;16.84;79.23;101490.00;6194854;28;20462;-74
2023/06/10 02:17:14;;;;;;;4.53;2.13;;;;;;;16.76;79.45;101488.81;6201457;28;20051;-74
2023/06/10 02:20:15;;;;;;;4.35;1.90;;;;;;;16.67;79.88;101492.91;6190053;28;20050;-74
2023/06/10 02:23:18;;;;;;;5.05;2.10;;;;;;;16.58;80.20;101494.38;6194268;28;20051;-74
2023/06/10 02:26:20;;;;;;;4.03;1.90;;;;;;;16.48;80.28;101493.28;6201859;28;20066;-74
2023/06/10 02:29:22;;;;;;;4.07;1.88;;;;;;;16.45;81.04;101504.09;6202094;28;20050;-74
2023/06/10 02:32:23;;;;;;;6.43;2.05;;;;;;;16.43;80.94;101503.34;6201197;28;20054;-74
2023/06/10 02:35:24;;;;;;;4.82;1.90;;;;;;;16.32;80.60;101504.06;6201983;28;20053;-74
2023/06/10 02:38:27;;;;;;;5.93;2.47;;;;;;;16.20;80.81;101495.09;6201680;28;20351;-74
2023/06/10 02:41:28;;;;;;;4.65;2.42;;;;;;;16.13;81.46;101499.09;6201225;28;20054;-74
2023/06/10 02:44:30;;;;;;;6.45;2.33;;;;;;;16.05;82.22;101508.50;6198868;28;20076;-74
2023/06/10 02:47:31;;;;;;;4.05;1.98;;;;;;;15.98;83.25;101508.88;6191488;28;20356;-74
2023/06/10 02:50:32;;;;;;;6.03;2.75;;;;;;;15.91;84.27;101504.91;6183588;28;20053;-74
2023/06/10 02:53:35;;;;;;;6.05;2.33;;;;;;;15.84;85.79;101508.06;6177543;28;20051;-74
2023/06/10 02:56:37;;;;;;;5.32;2.42;;;;;;;15.87;85.14;101508.72;6187865;28;20051;-74
2023/06/10 02:59:38;;;;;;;7.32;2.17;;;;;;;15.82;85.35;101502.00;6177772;28;20074;-74
2023/06/10 03:02:40;;;;;;;4.50;1.90;;;;;;;15.76;87.27;101507.69;6177639;28;20451;-74
2023/06/10 03:05:41;;;;;;;5.50;2.17;;;;;;;15.72;87.06;101509.69;6190992;28;20042;-74
2023/06/10 03:08:45;;;;;;;3.83;2.25;;;;;;;15.68;87.93;101516.13;6193241;28;20061;-74
2023/06/10 03:11:46;;;;;;;3.95;2.13;;;;;;;15.59;89.69;101511.38;6192683;28;20143;-74
2023/06/10 03:14:48;;;;;;;3.08;1.83;;;;;;;15.56;91.64;101520.34;6201293;28;20459;-74
2023/06/10 03:17:49;;;;;;;3.88;2.33;;;;;;;15.54;91.38;101526.69;6196972;28;20051;-74
2023/06/10 03:20:51;;;;;;;6.70;2.83;;;;;;;15.37;94.17;101535.66;6195297;28;20088;-74
2023/06/10 03:23:54;;;;;;;5.07;2.58;;;;;;;15.34;93.82;101527.91;6202214;28;20137;-74
2023/06/10 03:26:56;;;;;;;5.22;2.22;;;;;;;15.29;94.48;101524.69;6206076;28;20058;-74
2023/06/10 03:29:57;;;;;;;4.97;2.58;;;;;;;15.20;97.11;101521.66;6192033;28;20411;-74
2023/06/10 03:32:58;;;;;;;5.60;2.35;;;;;;;15.26;97.40;101523.09;6182004;28;20062;-74
2023/06/10 03:36:00;;;;;;;5.00;2.00;;;;;;;15.28;96.06;101525.63;6181984;28;20058;-74
2023/06/10 03:39:02;;;;;;;11.35;2.53;;;;;;;15.23;96.03;101533.84;6181954;28;20051;-74
2023/06/10 03:42:05;;;;;;;6.03;2.10;;;;;;;15.18;97.61;101531.50;6203540;28;20423;-74
2023/06/10 03:45:07;;;;;;;9.38;2.40;;;;;;;15.18;97.65;101534.13;6179207;28;20059;-74
2023/06/10 03:48:09;;;;;;;5.70;2.35;;;;;;;15.18;98.21;101539.44;6172659;28;20047;-74
2023/06/10 03:51:10;;;;;;;7.10;1.80;;;;;;;15.15;98.41;101544.91;6161425;28;20531;-74
2023/06/10 03:54:13;;;;;;;4.05;2.05;;;;;;;15.15;99.12;101546.69;6188585;28;20068;-74
2023/06/10 03:57:14;;;;;;;4.90;2.53;;;;;;;15.16;99.63;101548.41;6192177;28;20061;-74
2023/06/10 04:00:17;;;;;;;5.00;2.08;;;;;;;15.13;100.00;101545.94;6184207;28;20049;-74
2023/06/10 04:03:21;;;;;;;5.88;2.60;;;;;;;15.14;100.00;101547.66;6161354;28;20049;-74
2023/06/10 04:06:25;;;;;;;3.90;2.38;;;;;;;15.11;100.00;101550.47;6164550;28;20047;-74
2023/06/10 04:09:27;;;;;;;5.55;2.30;;;;;;;15.04;100.00;101538.56;6176450;28;20054;-74
2023/06/10 04:12:28;;;;;;;5.05;2.85;;;;;;;14.90;100.00;101540.22;6172452;28;20096;-74
2023/06/10 04:15:32;;;;;;;4.10;1.80;;;;;;;15.00;100.00;101537.88;6174691;28;20046;-74
2023/06/10 04:18:33;;;;;;;4.22;2.53;;;;;;;15.01;100.00;101551.97;6186157;28;20057;-74
2023/06/10 04:21:35;;;;;;;5.07;2.60;;;;;;;15.05;100.00;101548.19;6184895;28;20054;-74
2023/06/10 04:24:38;;;;;;;4.80;2.35;;;;;;;15.11;100.00;101546.03;6178297;28;20503;-74
2023/06/10 04:27:39;;;;;;;4.70;2.17;;;;;;;15.04;100.00;101541.19;6177559;28;20042;-74
2023/06/10 04:30:41;;;;;;;5.43;2.45;;;;;;;15.01;100.00;101544.03;6177462;28;20038;-74
2023/06/10 04:33:42;;;;;;;5.18;2.60;;;;;;;15.00;100.00;101547.63;6177792;28;20059;-74
2023/06/10 04:36:44;;;;;;;5.45;2.80;;;;;;;15.04;100.00;101550.00;6183548;28;20057;-74
2023/06/10 04:39:47;;;;;;;10.23;2.75;;;;;;;14.91;100.00;101552.50;6191077;28;20043;-74
2023/06/10 04:42:48;;;;;;;4.95;2.53;;;;;;;14.85;100.00;101552.88;6191886;28;20141;-74
2023/06/10 04:45:49;;;;;;;5.47;2.50;;;;;;;14.86;100.00;101557.22;6189530;28;20054;-78
2023/06/10 04:48:51;;;;;;;4.82;2.63;;;;;;;14.70;100.00;101553.75;6189169;28;20355;-78
2023/06/10 04:51:52;;;;;;;5.93;2.72;;;;;;;14.77;100.00;101557.75;6189978;28;20555;-77
2023/06/10 04:54:55;;;;;;;5.43;2.95;;;;;;;14.74;100.00;101555.28;6190837;28;20046;-77
2023/06/10 04:57:57;;;;;;;3.25;2.38;;;;;;;14.69;100.00;101554.69;6195214;28;20053;-78
2023/06/10 05:00:59;;;;;;;6.75;2.40;;;;;;;14.78;100.00;101551.50;6193954;28;20066;-78
2023/06/10 05:04:00;;;;;;;4.28;2.70;;;;;;;14.85;100.00;101549.34;6194191;28;20055;-78
2023/06/10 05:07:02;;;;;;;12.40;3.05;;;;;;;14.89;100.00;101562.31;6198637;28;20054;-74
2023/06/10 05:10:07;;;;;;;7.13;3.40;;;;;;;14.96;100.00;101562.81;6180096;28;20059;-78
2023/06/10 05:13:08;;;;;;;26.83;8.80;;;;;;;14.75;100.00;101570.19;6197049;28;20054;-78
2023/06/10 05:16:09;;;;;;;7.72;3.75;;;;;;;14.79;100.00;101574.38;6187942;28;20059;-78
2023/06/10 05:19:11;;;;;;;7.15;2.90;;;;;;;14.70;100.00;101572.25;6195749;28;20129;-79
2023/06/10 05:22:13;;;;;;;6.38;2.88;;;;;;;14.85;100.00;101576.69;6194615;28;20042;-78
2023/06/10 05:25:15;;;;;;;9.02;4.18;;;;;;;14.59;100.00;101577.34;6188124;28;20061;-79
2023/06/10 05:28:18;;;;;;;5.90;3.40;;;;;;;14.64;100.00;101576.13;6192211;28;20050;-74
2023/06/10 05:31:19;;;;;;;6.40;3.60;;;;;;;14.72;100.00;101583.63;6201908;28;20101;-74
2023/06/10 05:34:21;;;;;;;8.23;3.15;;;;;;;14.64;100.00;101584.06;6189592;28;20073;-74
2023/06/10 05:37:22;;;;;;;9.73;4.00;;;;;;;14.85;100.00;101573.16;6187821;28;20050;-74
2023/06/10 05:40:25;;;;;;;7.18;3.58;;;;;;;14.75;100.00;101572.00;6191080;28;20435;-74
2023/06/10 05:43:26;;;;;;;9.07;4.18;;;;;;;14.81;100.00;101572.50;6195429;28;20347;-74
2023/06/10 05:46:28;;;;;;;7.57;3.58;;;;;;;14.84;100.00;101574.13;6187380;28;20047;-74
2023/06/10 05:49:29;;;;;;;10.45;3.45;;;;;;;14.85;100.00;101578.47;6192594;28;20046;-74
2023/06/10 05:52:31;;;;;;;10.20;4.82;;;;;;;14.93;100.00;101585.00;6196473;28;20454;-75
2023/06/10 05:55:33;;;;;;;10.05;3.90;;;;;;;14.84;100.00;101587.34;6186607;28;20061;-74
2023/06/10 05:58:35;;;;;;;12.75;5.13;;;;;;;14.90;100.00;101585.22;6192113;28;20050;-74
2023/06/10 06:01:36;;;;;;;5.45;3.55;;;;;;;14.89;100.00;101582.63;6194640;28;20038;-78
2023/06/10 06:04:37;;;;;;;4.95;3.03;;;;;;;14.93;100.00;101586.81;6193378;28;20054;-78
2023/06/10 06:07:39;;;;;;;7.20;3.90;;;;;;;14.84;100.00;101582.91;6191577;28;20046;-79
2023/06/10 06:10:41;;;;;;;10.85;4.40;;;;;;;14.93;100.00;101577.06;6200624;28;20347;-78
2023/06/10 06:13:43;;;;;;;7.07;4.35;;;;;;;14.93;100.00;101585.00;6192446;28;20050;-78
2023/06/10 06:16:44;;;;;;;9.07;3.90;;;;;;;15.01;100.00;101578.44;6197896;28;20057;-78
2023/06/10 06:19:47;;;;;;;8.77;4.03;;;;;;;15.06;100.00;101582.50;6189413;28;20056;-78
2023/06/10 06:22:49;;;;;;;8.02;4.32;;;;;;;15.05;100.00;101582.63;6202304;28;20205;-78
2023/06/10 06:25:52;;;;;;;9.40;4.10;;;;;;;15.25;100.00;101576.97;6193882;28;20390;-78
2023/06/10 06:28:53;;;;;;;4.72;2.88;;;;;;;15.15;100.00;101579.31;6202374;28;20046;-78
2023/06/10 06:31:55;;;;;;;12.00;4.10;;;;;;;15.17;100.00;101574.81;6185690;28;20049;-78
2023/06/10 06:34:56;;;;;;;8.40;4.20;;;;;;;15.14;100.00;101571.47;6181047;28;20057;-79
2023/06/10 06:37:58;;;;;;;8.10;4.05;;;;;;;15.15;100.00;101583.75;6199376;28;20050;-79
2023/06/10 06:41:03;;;;;;;7.32;3.70;;;;;;;15.20;100.00;101576.41;6187344;28;20047;-78
2023/06/10 06:44:04;;;;;;;7.13;4.03;;;;;;;15.15;100.00;101579.31;6188183;28;20061;-80
2023/06/10 06:47:06;;;;;;;8.20;3.95;;;;;;;15.33;100.00;101584.47;6193472;28;20086;-79
2023/06/10 06:50:08;;;;;;;10.55;4.50;;;;;;;15.36;100.00;101586.94;6200534;28;20054;-79
2023/06/10 06:53:10;;;;;;;7.80;3.97;;;;;;;15.41;100.00;101582.22;6199785;28;20057;-79
2023/06/10 06:56:13;;;;;;;6.43;3.75;;;;;;;15.48;100.00;101578.25;6185897;28;20058;-78
2023/06/10 06:59:14;;;;;;;9.35;3.90;;;;;;;15.49;100.00;101572.03;6201059;28;20057;-78
2023/06/10 07:02:16;;;;;;;8.95;4.00;;;;;;;15.50;100.00;101576.38;6201200;28;20050;-78
2023/06/10 07:05:17;;;;;;;7.60;4.35;;;;;;;15.52;100.00;101586.84;6193464;28;20073;-79
2023/06/10 07:08:18;;;;;;;9.50;3.90;;;;;;;15.59;100.00;101574.97;6201059;28;20370;-78
2023/06/10 07:11:21;;;;;;;6.90;4.10;;;;;;;15.62;100.00;101580.91;6177041;28;20050;-78
2023/06/10 07:14:23;;;;;;;7.95;3.85;;;;;;;15.64;100.00;101586.16;6178421;28;20066;-78
2023/06/10 07:17:24;;;;;;;7.65;4.32;;;;;;;15.57;100.00;101590.94;6177099;28;20360;-78
2023/06/10 07:20:26;;;;;;;6.47;4.20;;;;;;;15.59;100.00;101588.19;6176655;28;20058;-78
2023/06/10 07:23:27;;;;;;;5.95;3.70;;;;;;;15.76;100.00;101593.38;6185273;28;20050;-78
2023/06/10 07:26:30;;;;;;;8.30;4.13;;;;;;;15.82;100.00;101592.13;6177131;28;20062;-78
2023/06/10 07:29:31;;;;;;;10.60;4.18;;;;;;;15.86;100.00;101594.50;6184826;28;20054;-79
2023/06/10 07:32:32;;;;;;;10.25;3.90;;;;;;;15.92;100.00;101593.25;6183819;28;20043;-78
2023/06/10 07:35:34;;;;;;;8.05;4.63;;;;;;;15.93;100.00;101593.16;6196786;28;20042;-77
2023/06/10 07:38:35;;;;;;;4.95;3.22;;;;;;;16.00;100.00;101600.75;6182787;28;20055;-79
2023/06/10 07:41:38;;;;;;;10.45;3.95;;;;;;;15.98;100.00;101593.72;6191382;28;20050;-78
2023/06/10 07:44:39;;;;;;;8.52;3.95;;;;;;;15.88;100.00;101581.13;6191706;28;20046;-78
2023/06/10 07:47:41;;;;;;;9.38;4.22;;;;;;;16.01;100.00;101581.22;6190038;28;20058;-78
2023/06/10 07:50:42;;;;;;;6.63;3.92;;;;;;;16.14;100.00;101569.75;6194038;28;20061;-78
2023/06/10 07:53:43;;;;;;;10.05;3.83;;;;;;;16.26;100.00;101573.44;6190796;28;20051;-77
2023/06/10 07:56:46;;;;;;;8.43;4.10;;;;;;;16.31;100.00;101571.31;6179996;28;20055;-78
2023/06/10 07:59:48;;;;;;;8.15;3.10;;;;;;;16.37;100.00;101580.69;6195493;28;20874;-79
2023/06/10 08:02:50;;;;;;;5.15;3.78;;;;;;;16.43;100.00;101569.66;6197984;28;20042;-79
2023/06/10 08:05:51;;;;;;;5.43;3.25;;;;;;;16.48;100.00;101567.56;6198259;28;20054;-79
2023/06/10 08:08:53;;;;;;;7.40;3.53;;;;;;;16.57;100.00;101569.63;6191417;28;20050;-79
2023/06/10 08:11:56;;;;;;;6.78;3.65;;;;;;;16.58;100.00;101563.38;6197519;28;20463;-79
2023/06/10 08:14:57;;;;;;;5.63;3.63;;;;;;;16.71;100.00;101569.59;6198163;28;20466;-79
2023/06/10 08:17:58;;;;;;;6.38;3.17;;;;;;;16.84;100.00;101566.97;6192545;28;20046;-79
2023/06/10 08:21:00;;;;;;;6.63;4.00;;;;;;;16.88;100.00;101557.88;6190659;28;20119;-79
2023/06/10 08:24:01;;;;;;;6.25;3.67;;;;;;;16.96;100.00;101565.31;6186683;28;20054;-79
2023/06/10 08:27:05;;;;;;;10.25;4.05;;;;;;;17.05;100.00;101559.41;6198516;28;20054;-78
2023/06/10 08:30:09;;;;;;;8.23;3.97;;;;;;;17.09;100.00;101566.19;6190205;28;20058;-79
2023/06/10 08:33:11;;;;;;;10.25;3.70;;;;;;;17.13;100.00;101570.34;6197508;28;20354;-79
2023/06/10 08:36:12;;;;;;;9.02;3.95;;;;;;;17.25;99.56;101573.97;6201526;28;20050;-80
2023/06/10 08:39:13;;;;;;;8.63;4.10;;;;;;;17.42;97.99;101575.47;6199215;28;20058;-79
2023/06/10 08:42:24;;;;;;;7.22;3.60;;;;;;;17.45;96.98;101570.81;6202048;28;20053;-79
2023/06/10 08:45:31;;;;;;;5.72;3.35;;;;;;;17.56;96.70;101563.88;6200298;28;20061;-80
2023/06/10 08:48:35;;;;;;;5.70;3.60;;;;;;;17.52;94.47;101559.75;6198299;28;20097;-80
2023/06/10 08:51:37;;;;;;;5.45;3.38;;;;;;;17.62;94.89;101556.34;6202608;28;20446;-81
2023/06/10 08:54:39;;;;;;;7.43;3.55;;;;;;;17.75;92.22;101559.84;6203064;28;20133;-79
2023/06/10 08:57:44;;;;;;;8.32;3.88;;;;;;;17.88;92.57;101557.19;6201061;28;20043;-79
2023/06/10 09:00:46;;;;;;;7.88;3.55;;;;;;;17.97;92.50;101561.84;6178934;28;20046;-79
2023/06/10 09:03:47;;;;;;;8.25;3.40;;;;;;;18.00;91.70;101553.66;6192122;28;20051;-79
2023/06/10 09:06:50;;;;;;;6.53;3.22;;;;;;;18.06;90.24;101547.03;6203959;28;20255;-79
2023/06/10 09:09:53;;;;;;;9.30;3.55;;;;;;;18.21;87.32;101561.03;6203291;28;20042;-79
2023/06/10 09:12:56;;;;;;;4.47;2.90;;;;;;;18.33;86.57;101554.84;6204074;28;20046;-79
2023/06/10 09:16:00;;;;;;;5.22;3.05;;;;;;;18.35;86.93;101550.25;6203483;28;20137;-79
2023/06/10 09:19:07;;;;;;;6.50;3.28;;;;;;;18.40;87.31;101553.44;6203820;28;20056;-79
2023/06/10 09:22:09;;;;;;;9.90;3.20;;;;;;;18.75;83.27;101549.97;6202022;28;20050;-79
2023/06/10 09:25:12;;;;;;;8.05;3.22;;;;;;;18.85;81.56;101548.34;6196505;28;20141;-79
2023/06/10 09:28:16;;;;;;;7.28;3.35;;;;;;;18.93;82.58;101550.41;6179387;28;20053;-78
2023/06/10 09:31:18;;;;;;;6.53;2.92;;;;;;;18.90;83.21;101548.84;6194999;28;20431;-79
2023/06/10 09:34:20;;;;;;;7.40;2.80;;;;;;;18.93;81.36;101547.75;6195084;28;20411;-79
2023/06/10 09:37:22;;;;;;;6.50;3.10;;;;;;;19.05;78.78;101544.16;6179198;28;20050;-79
2023/06/10 09:40:23;;;;;;;9.18;3.50;;;;;;;19.32;79.07;101549.19;6178703;28;20059;-79
2023/06/10 09:43:40;;;;;;;6.32;3.17;;;;;;;19.44;77.44;101545.56;6180348;28;20053;-78
2023/06/10 09:46:42;;;;;;;6.05;3.35;;;;;;;19.40;74.68;101541.44;6178938;28;20363;-79
2023/06/10 09:49:43;;;;;;;6.57;2.83;;;;;;;19.33;77.65;101547.38;6178241;28;20360;-79
2023/06/10 09:52:46;;;;;;;5.97;3.00;;;;;;;19.40;78.06;101537.94;6178850;28;20053;-79
2023/06/10 09:55:48;;;;;;;4.45;3.22;;;;;;;19.46;76.07;101534.78;6178733;28;20403;-79
2023/06/10 09:58:54;;;;;;;5.60;2.63;;;;;;;19.57;75.66;101529.44;6178684;28;20474;-79
2023/06/10 10:01:56;;;;;;;5.97;2.95;;;;;;;19.62;77.53;101524.66;6178062;28;20046;-78
2023/06/10 10:05:03;;;;;;;6.20;2.83;;;;;;;19.75;74.40;101529.84;6186823;28;20046;-78
2023/06/10 10:08:05;;;;;;;6.38;2.95;;;;;;;19.85;71.54;101517.50;6184112;28;20058;-78
2023/06/10 10:11:06;;;;;;;8.00;2.67;;;;;;;19.90;72.99;101511.78;6197127;28;20459;-78
2023/06/10 10:14:10;;;;;;;5.53;2.88;;;;;;;20.12;71.46;101517.06;6188818;28;20054;-77
2023/06/10 10:17:11;;;;;;;4.95;2.45;;;;;;;20.24;66.88;101515.22;6201376;28;20053;-78
2023/06/10 10:20:15;;;;;;;4.18;2.70;;;;;;;20.21;66.64;101513.66;6193733;28;20051;-77
2023/06/10 10:23:22;;;;;;;7.53;2.97;;;;;;;20.36;66.65;101516.88;6202226;28;20047;-77
2023/06/10 10:26:26;;;;;;;4.43;2.70;;;;;;;20.55;66.20;101510.91;6201967;28;20359;-78
2023/06/10 10:29:33;;;;;;;5.90;2.58;;;;;;;20.59;65.50;101506.16;6193522;28;20050;-78
2023/06/10 10:32:38;;;;;;;4.55;2.47;;;;;;;20.65;65.45;101513.63;6201817;28;20383;-78
2023/06/10 10:35:40;;;;;;;5.82;2.53;;;;;;;20.79;62.70;101510.66;6202013;28;20062;-77
2023/06/10 10:38:43;;;;;;;6.43;2.80;;;;;;;20.85;62.05;101506.59;6193590;28;20366;-77
2023/06/10 10:41:45;;;;;;;8.27;2.60;;;;;;;20.93;60.87;101496.97;6189716;28;20043;-77
2023/06/10 10:44:48;;;;;;;3.30;2.33;;;;;;;21.10;63.03;101516.06;6196181;28;20051;-77
2023/06/10 10:47:55;;;;;;;3.88;2.50;;;;;;;21.19;61.92;101504.59;6193752;28;20046;-78
2023/06/10 10:50:58;;;;;;;4.88;2.55;;;;;;;21.24;59.91;101505.88;6179864;28;20058;-78
2023/06/10 10:54:13;;;;;;;3.75;2.45;;;;;;;21.29;61.21;101503.66;6177730;28;20050;-78
2023/06/10 10:57:16;;;;;;;4.07;2.65;;;;;;;21.39;59.38;101497.53;6179295;28;20082;-78
2023/06/10 11:00:28;;;;;;;4.25;2.40;;;;;;;21.55;58.67;101494.38;6184963;28;20058;-77
2023/06/10 11:03:31;;;;;;;5.25;2.13;;;;;;;21.72;60.10;101499.94;6194952;28;20133;-77
2023/06/10 11:06:32;;;;;;;3.30;2.50;;;;;;;21.99;58.07;101495.78;6183469;28;20050;-77
2023/06/10 11:09:33;;;;;;;6.00;2.22;;;;;;;22.20;57.88;101498.38;6179014;28;20050;-77
2023/06/10 11:12:54;;;;;;;3.10;2.40;;;;;;;22.44;56.22;101498.84;6186130;28;20049;-78
2023/06/10 11:15:59;;;;;;;7.13;2.58;;;;;;;22.64;55.47;101499.69;6193073;28;20466;-79
2023/06/10 11:19:00;;;;;;;6.18;3.03;;;;;;;22.70;55.52;101500.94;6187964;28;20051;-78
2023/06/10 11:22:02;;;;;;;3.67;2.17;;;;;;;22.87;55.76;101491.34;6182499;28;20046;-78
2023/06/10 11:25:14;;;;;;;4.57;2.58;;;;;;;22.87;52.87;101494.84;6193788;28;20145;-78
2023/06/10 11:28:19;;;;;;;4.85;2.40;;;;;;;23.03;53.89;101491.63;6201421;28;20058;-79
2023/06/10 11:31:23;;;;;;;4.68;2.60;;;;;;;23.49;51.64;101493.44;6192932;28;20129;-79
2023/06/10 11:34:26;;;;;;;5.75;2.60;;;;;;;23.49;51.83;101482.72;6177817;28;20050;-79
2023/06/10 11:37:28;;;;;;;4.22;2.45;;;;;;;23.60;49.84;101480.81;6186116;28;20042;-79
2023/06/10 11:40:30;;;;;;;4.35;2.35;;;;;;;23.78;51.51;101476.38;6186967;28;20205;-80
2023/06/10 11:43:31;;;;;;;3.30;1.75;;;;;;;24.00;48.82;101477.81;6191742;28;20043;-79
2023/06/10 11:46:35;;;;;;;5.32;1.88;;;;;;;24.60;43.48;101474.53;6190924;28;20058;-79
2023/06/10 11:49:36;;;;;;;4.28;1.85;;;;;;;24.71;45.28;101468.94;6205587;28;20054;-79
2023/06/10 11:52:41;;;;;;;2.90;1.50;;;;;;;24.83;41.30;101467.66;6195467;28;20054;-79
2023/06/10 11:55:43;;;;;;;2.95;1.73;;;;;;;25.09;43.25;101470.38;6198710;28;20470;-79
2023/06/10 11:58:45;;;;;;;5.10;2.10;;;;;;;25.33;43.57;101476.91;6199831;28;20181;-79
2023/06/10 12:01:48;;;;;;;4.82;1.88;;;;;;;25.57;43.26;101466.25;6198832;28;20363;-80
2023/06/10 12:04:49;;;;;;;5.32;2.08;;;;;;;25.76;42.52;101463.34;6198592;28;20050;-78
2023/06/10 12:08:08;;;;;;;3.88;1.90;;;;;;;26.08;42.41;101463.59;6201673;28;20057;-77
2023/06/10 12:11:10;;;;;;;2.80;1.98;;;;;;;26.12;41.70;101468.47;6202733;28;20053;-78
2023/06/10 12:14:12;;;;;;;7.15;1.83;;;;;;;26.30;42.51;101453.00;6201658;28;20042;-77
2023/06/10 12:17:15;;;;;;;3.05;1.98;;;;;;;26.65;42.07;101458.22;6198674;28;20050;-78
2023/06/10 12:20:26;;;;;;;2.22;1.90;;;;;;;26.75;44.04;101461.59;6200861;28;20048;-76
2023/06/10 12:23:27;;;;;;;5.95;3.00;;;;;;;26.86;43.12;101453.16;6195487;28;20039;-79
2023/06/10 12:26:36;;;;;;;4.55;2.35;;;;;;;26.99;44.04;101458.88;6195690;28;20050;-79
2023/06/10 12:29:37;;;;;;;4.43;2.50;;;;;;;26.88;44.64;101461.06;6178717;28;20058;-79
2023/06/10 12:32:44;;;;;;;3.83;2.42;;;;;;;26.85;44.69;101456.03;6179585;28;20050;-79
2023/06/10 12:35:49;;;;;;;4.28;2.40;;;;;;;26.89;44.67;101444.75;6183815;28;20138;-79
2023/06/10 12:38:52;;;;;;;3.13;2.17;;;;;;;26.88;45.27;101440.34;6204260;28;20421;-79
2023/06/10 12:41:53;;;;;;;5.05;2.15;;;;;;;26.97;44.57;101442.00;6196372;28;20050;-79
2023/06/10 12:44:56;;;;;;;4.15;2.58;;;;;;;27.12;44.22;101428.69;6203902;28;20046;-79
2023/06/10 12:48:10;;;;;;;7.20;2.92;;;;;;;27.19;44.62;101431.53;6199352;28;20052;-79
2023/06/10 12:51:11;;;;;;;4.90;2.78;;;;;;;27.17;44.59;101426.31;6202982;28;20061;-79
2023/06/10 12:54:13;;;;;;;6.85;3.35;;;;;;;27.67;43.58;101424.25;6204794;28;20058;-79
2023/06/10 12:57:14;;;;;;;3.53;2.63;;;;;;;27.64;41.92;101419.19;6196769;28;20439;-79
2023/06/10 13:00:17;;;;;;;5.20;2.40;;;;;;;27.91;42.55;101410.59;6203672;28;20073;-79
2023/06/10 13:03:20;;;;;;;4.13;2.70;;;;;;;28.24;42.53;101422.00;6204485;28;20054;-79
2023/06/10 13:06:21;;;;;;;2.85;2.08;;;;;;;28.10;42.96;101409.28;6204187;28;20058;-79
2023/06/10 13:09:23;;;;;;;5.38;2.80;;;;;;;28.11;42.94;101405.53;6197290;28;20351;-79
2023/06/10 13:12:28;;;;;;;3.38;2.45;;;;;;;28.55;41.73;101404.88;6203143;28;20442;-79
2023/06/10 13:15:30;;;;;;;4.07;2.40;;;;;;;28.70;41.31;101394.91;6181652;28;20051;-78
2023/06/10 13:18:37;;;;;;;4.93;2.55;;;;;;;28.62;42.10;101399.59;6203973;28;20057;-78
2023/06/10 13:21:38;;;;;;;3.80;2.38;;;;;;;28.42;42.61;101402.78;6184830;28;20072;-78
2023/06/10 13:24:40;;;;;;;5.38;2.75;;;;;;;28.56;44.08;101399.25;6194397;28;20046;-79
2023/06/10 13:27:42;;;;;;;4.15;2.38;;;;;;;28.63;43.15;101393.16;6192459;28;20073;-79
2023/06/10 13:30:43;;;;;;;4.32;2.35;;;;;;;28.63;41.73;101391.28;6179584;28;20132;-79
2023/06/10 13:33:46;;;;;;;4.10;2.90;;;;;;;28.78;41.72;101381.28;6191467;28;20050;-79
2023/06/10 13:36:48;;;;;;;3.22;2.50;;;;;;;28.69;40.65;101382.41;6203326;28;20337;-79
2023/06/10 13:39:50;;;;;;;3.35;2.15;;;;;;;28.78;42.46;101380.47;6202881;28;20054;-79
2023/06/10 13:42:54;;;;;;;5.28;2.80;;;;;;;28.96;42.66;101370.13;6200957;28;20432;-79
2023/06/10 13:45:55;;;;;;;4.10;2.60;;;;;;;29.01;42.92;101369.56;6203122;28;20359;-79
2023/06/10 13:48:58;;;;;;;4.70;2.53;;;;;;;29.06;41.83;101367.97;6203489;28;20049;-79
2023/06/10 13:51:59;;;;;;;5.15;2.90;;;;;;;29.18;41.10;101364.81;6202429;28;20054;-79
2023/06/10 13:55:00;;;;;;;4.68;2.80;;;;;;;29.33;42.76;101358.31;6203413;28;20046;-79
2023/06/10 13:58:02;;;;;;;3.58;2.70;;;;;;;29.33;41.09;101352.06;6203127;28;20057;-79
2023/06/10 14:01:03;;;;;;;4.57;2.90;;;;;;;29.53;42.04;101345.03;6202444;28;20050;-79
2023/06/10 14:04:06;;;;;;;6.18;3.05;;;;;;;29.72;40.81;101343.56;6202925;28;20042;-79
2023/06/10 14:07:07;;;;;;;6.07;2.70;;;;;;;29.78;40.56;101341.97;6202422;28;20051;-79